首页
METAR-TAF:

METAR-TAF

机场 :

莱利斯塔德, 荷兰

纬度: 52-27-37N, 经度: 005-31-38E, 海拔: -4米

当前天气观测

该预报发布于22分钟前的16:55 UTC
风速14节,风向西,在西转西南西北之间变化
温度 11°C
湿度 71%
气压 993 hPa
能见度10公里或以上
少量云层高于2700英尺
散云层高于3300英尺
多云层高于4500英尺

METAR: EHLE 051655Z AUTO 28014KT 240V320 9999 FEW027 SCT033 BKN045 11/06 Q0993 TEMPO 7000 -SHRA FEW020CB

时间: 19:17 (17:17 UTC)

预报

该预报发布于6小时和6分钟前的11:11 UTC
预报有效从05日的 12点(UTC)到 06日的 18点(UTC)
风速14节,风向西转西南
能见度10公里或以上
散云层高于2500英尺
短暂存在
从 05日的 12点(UTC)到 05日的 16点(UTC)
能見度: 6000
散云层高于2000英尺, 积雨云.
阵雨
几率 30% :
短暂存在
从 05日的 12点(UTC)到 05日的 15点(UTC)
风速15节,风向西,有时为25节阵风
能見度: 3500
多云层高于1200英尺
散云层高于1800英尺, 积雨云.
雷暴, 雨
成为
从 05日的 13点(UTC)到 05日的 15点(UTC)
风速15节,风向西北,有时为25节阵风
成为
从 05日的 15点(UTC)到 05日的 18点(UTC)
风速12节,风向西
几率 30% :
短暂存在
从 05日的 16点(UTC)到 06日的 01点(UTC)
能見度: 6000
散云层高于2000英尺, 积雨云.
阵雨
成为
从 05日的 18点(UTC)到 05日的 21点(UTC)
风速10节,风向西转西南
成为
从 06日的 07点(UTC)到 06日的 10点(UTC)
风速18节,风向西南,有时为28节阵风
成为
从 06日的 15点(UTC)到 06日的 18点(UTC)
风速14节,风向南转西南

TAF: EHLE 051111Z 0512/0618 25014KT 9999 SCT025 TEMPO 0512/0516 6000 SHRA SCT020CB PROB30 TEMPO 0512/0515 27015G25KT 3500 TSRA BKN012 SCT018CB BECMG 0513/0515 31015G25KT BECMG 0515/0518 28012KT PROB30 TEMPO 0516/0601 6000 SHRA SCT020CB BECMG 0518/0521 24010KT BECMG 0607/0610 23018G28KT BECMG 0615/0618 21014KT

超过4000个机场的气象观测和天气预报(METAR&TAF报告)。

可查询的气象台以黄色和红色小点在地图上表示。

将鼠标移到小点上方,可查看气象台名称。

然后点击查看天气观测和预报。

如需切换地图:点击带黑十字的绿色按钮放大地图;点击带横线的绿色按钮缩小地图;或者点击绿色箭头查看邻近地区的地图。


METAR-TAF: